Time;durP1;ratioP1;P1;durP2;ratioP2;P2;SDS_P1;SDS_P2;PMS_P1;PMS_P2;Temp;Humidity;BMP_temperature;BMP_pressure;BME280_temperature;BME280_humidity;BME280_pressure;Samples;Min_cycle;Max_cycle;Signal;HPM_P1;HPM_P2
2022/12/18 00:01:46;;;;;;;33.28;12.00;;;;;;;;;;5019600;28;20093;-81
2022/12/18 00:04:20;;;;;;;30.73;11.43;;;;;;;;;;5036847;28;20025;-82
2022/12/18 00:06:46;;;;;;;30.58;11.88;;;;;;;;;;5037748;28;20037;-81
2022/12/18 00:09:11;;;;;;;28.73;11.18;;;;;;;;;;5020379;28;20110;-82
2022/12/18 00:11:37;;;;;;;28.75;10.82;;;;;;;;;;5020068;28;20033;-82
2022/12/18 00:14:02;;;;;;;25.25;10.48;;;;;;;;;;5036797;28;20033;-82
2022/12/18 00:16:30;;;;;;;26.30;11.52;;;;;;;;;;5037032;28;20029;-82
2022/12/18 00:18:57;;;;;;;25.42;10.27;;;;;;;;;;5003463;28;20044;-81
2022/12/18 00:21:27;;;;;;;26.17;9.90;;;;;;;;;;5037481;28;20124;-82
2022/12/18 00:23:54;;;;;;;24.83;10.07;;;;;;;;;;5036955;28;20025;-82
2022/12/18 00:26:22;;;;;;;24.83;10.13;;;;;;;;;;5036691;28;20079;-82
2022/12/18 00:28:51;;;;;;;25.30;10.23;;;;;;;;;;5036728;28;20032;-81
2022/12/18 00:31:19;;;;;;;28.13;10.35;;;;;;;;;;5019328;28;20025;-82
2022/12/18 00:33:45;;;;;;;24.92;10.63;;;;;;;;;;5019298;28;20128;-83
2022/12/18 00:36:12;;;;;;;22.85;10.05;;;;;;;;;;5035834;28;20060;-82
2022/12/18 00:38:38;;;;;;;24.33;10.13;;;;;;;;;;5037006;28;20056;-81
2022/12/18 00:41:04;;;;;;;22.30;9.40;;;;;;;;;;5019209;28;20475;-81
2022/12/18 00:43:30;;;;;;;27.38;10.98;;;;;;;;;;5018880;28;20033;-83
2022/12/18 00:45:55;;;;;;;31.90;12.43;;;;;;;;;;5017642;28;20040;-82
2022/12/18 00:48:21;;;;;;;40.75;14.80;;;;;;;;;;5002654;28;20497;-82
2022/12/18 00:50:49;;;;;;;36.13;12.55;;;;;;;;;;5036549;28;20567;-82
2022/12/18 00:53:14;;;;;;;29.52;11.68;;;;;;;;;;5002749;28;20021;-82
2022/12/18 00:55:41;;;;;;;31.25;12.60;;;;;;;;;;5018124;28;20370;-81
2022/12/18 00:58:07;;;;;;;29.05;11.20;;;;;;;;;;5036173;28;20037;-81
2022/12/18 01:00:34;;;;;;;31.95;12.68;;;;;;;;;;5018232;28;20474;-82
2022/12/18 01:03:00;;;;;;;28.08;11.27;;;;;;;;;;5035875;28;20033;-81
2022/12/18 01:05:26;;;;;;;29.38;11.25;;;;;;;;;;5001333;28;20030;-81
2022/12/18 01:07:51;;;;;;;31.08;12.05;;;;;;;;;;5018589;28;20040;-80
2022/12/18 01:10:19;;;;;;;28.50;11.45;;;;;;;;;;5018104;28;20037;-81
2022/12/18 01:12:44;;;;;;;30.15;11.25;;;;;;;;;;5036782;28;20029;-81
2022/12/18 01:15:12;;;;;;;30.70;12.13;;;;;;;;;;5017243;28;20063;-81
2022/12/18 01:17:37;;;;;;;31.13;11.82;;;;;;;;;;5035878;28;20025;-80
2022/12/18 01:20:04;;;;;;;29.00;11.40;;;;;;;;;;5018020;28;20363;-81
2022/12/18 01:22:29;;;;;;;33.70;11.52;;;;;;;;;;5018393;28;20117;-81
2022/12/18 01:24:55;;;;;;;24.50;10.15;;;;;;;;;;5017716;28;20053;-81
2022/12/18 01:27:22;;;;;;;21.95;9.30;;;;;;;;;;5018652;28;20040;-81
2022/12/18 01:29:48;;;;;;;29.20;10.77;;;;;;;;;;5018005;28;20029;-82
2022/12/18 01:32:14;;;;;;;28.25;10.40;;;;;;;;;;5018130;28;20132;-81
2022/12/18 01:34:40;;;;;;;25.98;9.88;;;;;;;;;;5035295;28;20104;-81
2022/12/18 01:37:05;;;;;;;23.08;10.13;;;;;;;;;;5018281;28;20067;-81
2022/12/18 01:39:32;;;;;;;26.42;10.02;;;;;;;;;;5018139;28;20040;-81
2022/12/18 01:42:02;;;;;;;26.08;9.95;;;;;;;;;;5035766;28;20034;-82
2022/12/18 01:44:58;;;;;;;24.73;9.43;;;;;;;;;;5017487;28;20033;-81
2022/12/18 01:47:33;;;;;;;21.33;9.18;;;;;;;;;;5018731;28;20064;-81
2022/12/18 01:50:12;;;;;;;24.42;10.23;;;;;;;;;;5022325;28;20033;-82
2022/12/18 01:52:41;;;;;;;21.77;9.73;;;;;;;;;;5005683;28;20026;-79
2022/12/18 01:55:09;;;;;;;21.52;9.52;;;;;;;;;;5038769;28;20041;-81
2022/12/18 01:57:35;;;;;;;27.20;11.13;;;;;;;;;;5022239;28;20037;-82
2022/12/18 02:00:11;;;;;;;25.00;9.80;;;;;;;;;;5022092;28;20033;-81
2022/12/18 02:02:41;;;;;;;19.52;8.63;;;;;;;;;;5022335;28;20041;-81
2022/12/18 02:05:08;;;;;;;21.65;8.15;;;;;;;;;;5021087;28;20040;-81
2022/12/18 02:07:57;;;;;;;20.92;9.15;;;;;;;;;;5020872;28;20068;-82
2022/12/18 02:10:36;;;;;;;18.65;8.45;;;;;;;;;;5022048;28;20075;-81
2022/12/18 02:13:20;;;;;;;23.90;10.27;;;;;;;;;;5038986;28;20040;-82
2022/12/18 02:15:49;;;;;;;18.98;8.73;;;;;;;;;;5004416;28;20401;-82
2022/12/18 02:18:25;;;;;;;20.95;9.10;;;;;;;;;;5021190;28;20428;-81
2022/12/18 02:21:09;;;;;;;21.95;8.82;;;;;;;;;;5038690;28;20025;-82
2022/12/18 02:24:22;;;;;;;21.85;8.23;;;;;;;;;;5021442;28;20034;-82
2022/12/18 02:26:58;;;;;;;20.10;8.18;;;;;;;;;;5033760;28;20041;-81
2022/12/18 02:29:42;;;;;;;22.55;8.32;;;;;;;;;;5013818;28;20029;-82
2022/12/18 02:32:17;;;;;;;22.30;8.90;;;;;;;;;;5027682;28;20433;-80
2022/12/18 02:34:44;;;;;;;26.45;9.73;;;;;;;;;;5004717;28;20053;-81
2022/12/18 02:37:17;;;;;;;42.05;15.60;;;;;;;;;;5022071;28;20030;-82
2022/12/18 02:39:45;;;;;;;27.58;11.48;;;;;;;;;;5005441;28;20029;-81
2022/12/18 02:42:13;;;;;;;23.58;9.95;;;;;;;;;;5021727;28;20478;-82
2022/12/18 02:44:45;;;;;;;24.23;10.43;;;;;;;;;;5021719;28;20025;-81
2022/12/18 02:47:13;;;;;;;;;;;;;;;;;;5006205;28;20025;-81
2022/12/18 02:49:57;;;;;;;27.02;11.05;;;;;;;;;;5006140;28;20315;-81
2022/12/18 02:52:37;;;;;;;21.25;9.75;;;;;;;;;;5021378;28;20025;-82
2022/12/18 02:55:14;;;;;;;23.40;9.65;;;;;;;;;;5020260;28;20074;-81
2022/12/18 02:57:54;;;;;;;20.80;8.90;;;;;;;;;;5004704;28;20389;-83
2022/12/18 03:00:36;;;;;;;21.80;9.43;;;;;;;;;;5021648;28;20026;-83
2022/12/18 03:03:10;;;;;;;21.10;9.32;;;;;;;;;;5006151;28;20029;-83
2022/12/18 03:05:47;;;;;;;19.55;9.60;;;;;;;;;;5021015;28;20037;-83
2022/12/18 03:08:18;;;;;;;19.05;8.57;;;;;;;;;;5021661;28;20038;-81
2022/12/18 03:10:51;;;;;;;19.73;7.70;;;;;;;;;;5021599;28;20053;-82
2022/12/18 03:13:24;;;;;;;20.17;9.30;;;;;;;;;;5021237;28;20370;-83
2022/12/18 03:15:54;;;;;;;18.98;8.50;;;;;;;;;;5018440;28;20510;-83
2022/12/18 03:18:26;;;;;;;21.35;9.23;;;;;;;;;;5004690;28;20030;-82
2022/12/18 03:20:54;;;;;;;21.15;8.60;;;;;;;;;;5038799;28;20034;-82
2022/12/18 03:23:24;;;;;;;22.35;10.80;;;;;;;;;;5021013;28;20025;-82
2022/12/18 03:25:52;;;;;;;25.50;10.45;;;;;;;;;;5020210;28;20097;-82
2022/12/18 03:28:22;;;;;;;25.05;10.45;;;;;;;;;;5021030;28;20532;-82
2022/12/18 03:30:57;;;;;;;22.48;9.70;;;;;;;;;;5021059;28;20026;-82
2022/12/18 03:33:37;;;;;;;20.63;9.07;;;;;;;;;;5038357;28;20029;-81
2022/12/18 03:36:03;;;;;;;20.20;8.90;;;;;;;;;;5019981;28;20102;-82
2022/12/18 03:38:28;;;;;;;26.35;10.18;;;;;;;;;;5020839;28;20488;-83
2022/12/18 03:41:04;;;;;;;23.65;10.43;;;;;;;;;;5005382;28;20033;-81
2022/12/18 03:43:52;;;;;;;22.55;8.65;;;;;;;;;;5020813;28;20033;-82
2022/12/18 03:46:38;;;;;;;24.38;9.20;;;;;;;;;;5020124;28;20036;-82
2022/12/18 03:49:25;;;;;;;19.80;8.98;;;;;;;;;;5021026;28;20183;-82
2022/12/18 03:51:57;;;;;;;18.45;7.82;;;;;;;;;;5020759;28;20112;-81
2022/12/18 03:54:24;;;;;;;15.32;7.18;;;;;;;;;;5019716;28;20032;-82
2022/12/18 03:57:03;;;;;;;21.77;9.13;;;;;;;;;;5020906;28;20112;-82
2022/12/18 03:59:30;;;;;;;20.63;8.65;;;;;;;;;;5004355;28;20029;-82
2022/12/18 04:01:58;;;;;;;21.80;8.55;;;;;;;;;;5020317;28;20040;-82
2022/12/18 04:04:27;;;;;;;19.50;7.80;;;;;;;;;;5019508;28;20052;-82
2022/12/18 04:06:53;;;;;;;15.98;7.35;;;;;;;;;;5004461;28;20029;-82
2022/12/18 04:09:20;;;;;;;17.85;7.57;;;;;;;;;;5038500;28;20029;-81
2022/12/18 04:11:47;;;;;;;17.17;7.03;;;;;;;;;;5019609;28;20029;-82
2022/12/18 04:14:14;;;;;;;15.10;6.38;;;;;;;;;;5019024;28;20039;-82
2022/12/18 04:16:40;;;;;;;16.40;7.88;;;;;;;;;;5019570;28;20116;-82
2022/12/18 04:19:09;;;;;;;20.58;7.80;;;;;;;;;;5019407;28;20055;-82
2022/12/18 04:21:38;;;;;;;15.25;6.32;;;;;;;;;;5019553;28;20036;-81
2022/12/18 04:24:05;;;;;;;20.13;7.30;;;;;;;;;;5019058;28;20033;-81
2022/12/18 04:26:32;;;;;;;16.23;7.20;;;;;;;;;;5003807;28;20036;-82
2022/12/18 04:29:08;;;;;;;13.30;6.43;;;;;;;;;;5019966;28;20083;-83
2022/12/18 04:31:35;;;;;;;15.07;6.65;;;;;;;;;;5003972;28;20053;-82
2022/12/18 04:34:01;;;;;;;19.83;7.65;;;;;;;;;;5018911;28;20024;-82
2022/12/18 04:36:27;;;;;;;18.75;7.10;;;;;;;;;;5019494;28;20029;-82
2022/12/18 04:38:54;;;;;;;17.25;7.40;;;;;;;;;;5019925;28;20029;-82
2022/12/18 04:41:20;;;;;;;17.45;7.15;;;;;;;;;;5003093;28;20029;-82
2022/12/18 04:43:47;;;;;;;16.25;6.88;;;;;;;;;;5002994;28;20021;-82
2022/12/18 04:46:13;;;;;;;15.90;6.88;;;;;;;;;;5019295;28;20025;-82
2022/12/18 04:48:39;;;;;;;17.52;8.05;;;;;;;;;;5036604;28;20389;-82
2022/12/18 04:51:06;;;;;;;13.70;6.40;;;;;;;;;;5020160;28;20474;-84
2022/12/18 04:53:32;;;;;;;19.35;8.57;;;;;;;;;;5036759;28;20075;-82
2022/12/18 04:56:09;;;;;;;20.50;8.00;;;;;;;;;;5002145;28;20037;-82
2022/12/18 04:58:36;;;;;;;17.63;6.88;;;;;;;;;;5018662;28;20044;-82
2022/12/18 05:01:02;;;;;;;16.20;7.20;;;;;;;;;;5036779;28;20037;-84
2022/12/18 05:03:29;;;;;;;25.92;8.38;;;;;;;;;;5019812;28;20029;-82
2022/12/18 05:05:54;;;;;;;17.90;7.35;;;;;;;;;;5035898;28;20029;-82
2022/12/18 05:08:20;;;;;;;27.88;9.75;;;;;;;;;;5018279;28;20072;-81
2022/12/18 05:10:46;;;;;;;20.55;8.48;;;;;;;;;;5002618;28;20060;-82
2022/12/18 05:13:11;;;;;;;28.02;10.77;;;;;;;;;;5035694;28;20030;-83
2022/12/18 05:15:37;;;;;;;24.27;9.45;;;;;;;;;;5017222;28;20026;-82
2022/12/18 05:18:03;;;;;;;19.85;8.77;;;;;;;;;;5018214;28;20048;-83
2022/12/18 05:20:29;;;;;;;21.25;8.43;;;;;;;;;;5042122;28;20044;-82
2022/12/18 05:22:55;;;;;;;22.88;8.90;;;;;;;;;;5051434;28;20034;-82
2022/12/18 05:25:21;;;;;;;17.92;6.75;;;;;;;;;;5017853;28;20088;-82
2022/12/18 05:27:47;;;;;;;18.52;7.55;;;;;;;;;;5036369;28;20385;-83
2022/12/18 05:30:13;;;;;;;30.48;12.60;;;;;;;;;;5002635;28;20029;-82
2022/12/18 05:32:40;;;;;;;61.78;21.95;;;;;;;;;;5002093;28;20052;-82
2022/12/18 05:35:07;;;;;;;98.22;36.50;;;;;;;;;;5017410;28;20031;-82
2022/12/18 05:37:33;;;;;;;34.63;14.13;;;;;;;;;;5018998;28;20559;-82
2022/12/18 05:39:59;;;;;;;34.38;14.82;;;;;;;;;;5036356;28;20041;-81
2022/12/18 05:42:24;;;;;;;23.17;9.80;;;;;;;;;;5036410;28;20067;-83
2022/12/18 05:44:49;;;;;;;21.52;8.55;;;;;;;;;;5018037;28;20029;-82
2022/12/18 05:47:15;;;;;;;32.28;11.63;;;;;;;;;;5018021;28;20096;-82
2022/12/18 05:49:41;;;;;;;32.60;12.38;;;;;;;;;;5018151;28;20082;-82
2022/12/18 05:52:06;;;;;;;21.27;8.80;;;;;;;;;;5036370;28;20082;-82
2022/12/18 05:54:32;;;;;;;20.13;7.72;;;;;;;;;;5018551;28;20032;-82
2022/12/18 05:56:57;;;;;;;19.27;8.10;;;;;;;;;;5035973;28;20485;-82
2022/12/18 05:59:23;;;;;;;17.52;7.35;;;;;;;;;;5018038;28;20103;-82
2022/12/18 06:01:49;;;;;;;17.13;8.07;;;;;;;;;;5036308;28;20436;-81
2022/12/18 06:04:14;;;;;;;18.38;8.05;;;;;;;;;;5017657;28;20030;-81
2022/12/18 06:06:40;;;;;;;20.05;7.97;;;;;;;;;;5036707;28;20398;-82
2022/12/18 06:09:08;;;;;;;18.90;7.75;;;;;;;;;;5019835;28;20033;-83
2022/12/18 06:11:37;;;;;;;21.85;8.63;;;;;;;;;;5036412;28;20466;-83
2022/12/18 06:14:04;;;;;;;21.33;8.40;;;;;;;;;;5018332;28;20026;-81
2022/12/18 06:16:30;;;;;;;17.20;7.32;;;;;;;;;;5003057;28;20033;-82
2022/12/18 06:18:57;;;;;;;20.48;7.88;;;;;;;;;;5018380;28;20040;-82
2022/12/18 06:21:23;;;;;;;24.65;11.10;;;;;;;;;;5018678;28;20036;-84
2022/12/18 06:23:48;;;;;;;21.20;9.68;;;;;;;;;;5036854;28;20042;-83
2022/12/18 06:26:14;;;;;;;19.23;8.90;;;;;;;;;;5017707;28;20034;-82
2022/12/18 06:28:40;;;;;;;23.73;9.88;;;;;;;;;;5019172;28;20043;-82
2022/12/18 06:31:10;;;;;;;26.50;11.32;;;;;;;;;;5037557;28;20052;-81
2022/12/18 06:33:36;;;;;;;28.63;10.88;;;;;;;;;;5003485;28;20454;-82
2022/12/18 06:36:12;;;;;;;24.58;10.25;;;;;;;;;;5022024;28;20044;-83
2022/12/18 06:38:39;;;;;;;24.13;8.68;;;;;;;;;;5040285;28;20033;-80
2022/12/18 06:41:08;;;;;;;26.42;10.82;;;;;;;;;;5021954;28;20466;-82
2022/12/18 06:43:34;;;;;;;28.50;11.05;;;;;;;;;;5040120;28;20029;-82
2022/12/18 06:46:00;;;;;;;28.10;10.55;;;;;;;;;;5038827;28;20089;-83
2022/12/18 06:48:25;;;;;;;24.60;10.13;;;;;;;;;;5039501;28;20034;-82
2022/12/18 06:50:51;;;;;;;23.17;10.88;;;;;;;;;;5021810;28;20032;-82
2022/12/18 06:53:16;;;;;;;25.45;10.38;;;;;;;;;;5021615;28;20433;-82
2022/12/18 06:55:42;;;;;;;23.88;9.15;;;;;;;;;;5020442;28;20060;-82
2022/12/18 06:58:08;;;;;;;23.48;9.35;;;;;;;;;;5039665;28;20092;-82
2022/12/18 07:00:33;;;;;;;26.40;9.43;;;;;;;;;;5021619;28;20030;-82
2022/12/18 07:02:59;;;;;;;23.65;9.07;;;;;;;;;;5021978;28;20036;-82
2022/12/18 07:05:24;;;;;;;23.92;8.90;;;;;;;;;;5020766;28;20030;-82
2022/12/18 07:07:50;;;;;;;21.48;9.45;;;;;;;;;;5021632;28;20128;-82
2022/12/18 07:10:15;;;;;;;20.13;8.77;;;;;;;;;;5039375;28;20029;-81
2022/12/18 07:12:41;;;;;;;23.42;9.65;;;;;;;;;;5020961;28;20461;-82
2022/12/18 07:15:07;;;;;;;25.50;10.70;;;;;;;;;;5038023;28;20520;-83
2022/12/18 07:17:32;;;;;;;32.95;11.68;;;;;;;;;;5021861;28;20045;-82
2022/12/18 07:19:58;;;;;;;27.65;12.13;;;;;;;;;;5021254;28;20029;-82
2022/12/18 07:22:25;;;;;;;28.20;11.07;;;;;;;;;;5039078;28;20029;-82
2022/12/18 07:24:51;;;;;;;26.00;11.52;;;;;;;;;;5021040;28;20026;-83
2022/12/18 07:27:16;;;;;;;26.98;11.10;;;;;;;;;;5053587;28;20381;-82
2022/12/18 07:29:42;;;;;;;33.60;11.60;;;;;;;;;;5004074;28;20115;-81
2022/12/18 07:32:08;;;;;;;25.38;11.73;;;;;;;;;;5004300;28;20033;-81
2022/12/18 07:34:34;;;;;;;26.98;10.95;;;;;;;;;;5021110;28;20112;-82
2022/12/18 07:37:00;;;;;;;26.20;11.00;;;;;;;;;;5038060;28;20033;-82
2022/12/18 07:39:25;;;;;;;24.90;11.68;;;;;;;;;;5038991;28;20033;-82
2022/12/18 07:44:35;;;;;;;40.00;15.85;;;;;;;;;;5017811;28;20034;-83
2022/12/18 07:47:01;;;;;;;40.20;16.83;;;;;;;;;;5016741;28;20064;-82
2022/12/18 07:49:27;;;;;;;39.22;15.48;;;;;;;;;;5018327;28;20231;-81
2022/12/18 07:51:55;;;;;;;26.80;10.63;;;;;;;;;;5016932;28;20030;-82
2022/12/18 07:54:22;;;;;;;23.95;9.95;;;;;;;;;;5017808;28;20555;-83
2022/12/18 07:56:47;;;;;;;27.08;10.60;;;;;;;;;;5017474;28;20033;-82
2022/12/18 07:59:12;;;;;;;25.35;10.15;;;;;;;;;;5017875;28;20378;-81
2022/12/18 08:01:38;;;;;;;25.90;10.70;;;;;;;;;;5018053;28;20104;-83
2022/12/18 08:04:03;;;;;;;25.73;10.20;;;;;;;;;;5000028;28;20038;-82
2022/12/18 08:06:29;;;;;;;19.90;8.93;;;;;;;;;;5019400;28;20040;-83
2022/12/18 08:08:55;;;;;;;25.10;9.73;;;;;;;;;;5038192;28;20053;-82
2022/12/18 08:11:22;;;;;;;25.85;11.48;;;;;;;;;;5038133;28;20100;-83
2022/12/18 08:13:48;;;;;;;26.40;11.73;;;;;;;;;;5019269;28;20386;-82
2022/12/18 08:16:14;;;;;;;27.10;11.65;;;;;;;;;;5018962;28;20033;-82
2022/12/18 08:18:39;;;;;;;30.83;12.27;;;;;;;;;;5036750;28;20592;-83
2022/12/18 08:21:13;;;;;;;26.63;11.68;;;;;;;;;;5019310;28;20036;-83
2022/12/18 08:23:39;;;;;;;40.50;17.48;;;;;;;;;;5019448;28;20041;-82
2022/12/18 08:26:05;;;;;;;38.97;15.32;;;;;;;;;;5019337;28;20070;-81
2022/12/18 08:28:31;;;;;;;32.03;13.30;;;;;;;;;;5019766;28;20041;-81
2022/12/18 08:30:56;;;;;;;36.85;16.13;;;;;;;;;;5052211;28;20116;-83
2022/12/18 08:33:22;;;;;;;36.83;15.30;;;;;;;;;;5036272;28;20452;-81
2022/12/18 08:35:47;;;;;;;46.75;20.05;;;;;;;;;;5001306;28;20087;-82
2022/12/18 08:38:13;;;;;;;55.17;20.55;;;;;;;;;;5019228;28;20033;-81
2022/12/18 08:40:38;;;;;;;43.55;17.10;;;;;;;;;;5037204;28;20071;-81
2022/12/18 08:45:49;;;;;;;24.25;11.20;;;;;;;;;;5036703;28;20045;-82
2022/12/18 08:48:15;;;;;;;28.67;12.10;;;;;;;;;;5036410;28;20088;-82
2022/12/18 08:50:40;;;;;;;30.15;13.45;;;;;;;;;;5019162;28;20033;-82
2022/12/18 08:53:06;;;;;;;33.30;15.68;;;;;;;;;;5002523;28;20029;-81
2022/12/18 08:55:31;;;;;;;43.20;16.73;;;;;;;;;;5036110;28;20029;-83
2022/12/18 08:57:57;;;;;;;47.42;20.60;;;;;;;;;;5002075;28;20123;-83
2022/12/18 09:00:22;;;;;;;48.90;21.55;;;;;;;;;;5002023;28;20033;-82
2022/12/18 09:02:48;;;;;;;31.60;15.90;;;;;;;;;;5036409;28;20037;-82
2022/12/18 09:05:13;;;;;;;43.47;21.50;;;;;;;;;;5035544;28;20076;-83
2022/12/18 09:07:39;;;;;;;33.70;15.98;;;;;;;;;;5018553;28;20507;-82
2022/12/18 09:10:05;;;;;;;40.72;16.90;;;;;;;;;;5035848;28;20104;-82
2022/12/18 09:12:31;;;;;;;39.03;16.67;;;;;;;;;;5036419;28;20021;-82
2022/12/18 09:14:56;;;;;;;52.60;18.40;;;;;;;;;;5017585;28;20108;-81
2022/12/18 09:17:22;;;;;;;40.58;14.80;;;;;;;;;;5035812;28;20033;-82
2022/12/18 09:19:48;;;;;;;36.38;14.85;;;;;;;;;;5017960;28;20033;-83
2022/12/18 09:22:13;;;;;;;35.22;15.18;;;;;;;;;;5018242;28;20128;-82
2022/12/18 09:24:39;;;;;;;40.35;17.42;;;;;;;;;;5017882;28;20061;-82
2022/12/18 09:27:04;;;;;;;44.28;19.45;;;;;;;;;;5035610;28;20079;-82
2022/12/18 09:29:30;;;;;;;41.58;18.17;;;;;;;;;;5036063;28;20037;-81
2022/12/18 09:31:56;;;;;;;42.35;17.00;;;;;;;;;;5035629;28;20037;-83
2022/12/18 09:34:21;;;;;;;32.00;14.82;;;;;;;;;;5034289;28;20040;-80
2022/12/18 09:36:47;;;;;;;31.13;14.88;;;;;;;;;;5034860;28;20486;-82
2022/12/18 09:39:13;;;;;;;32.75;14.63;;;;;;;;;;5050653;28;20424;-83
2022/12/18 09:41:47;;;;;;;33.53;14.45;;;;;;;;;;5050711;28;20056;-83
2022/12/18 09:44:18;;;;;;;31.13;13.35;;;;;;;;;;5034636;28;20037;-82
2022/12/18 09:46:48;;;;;;;32.00;14.38;;;;;;;;;;5018151;28;20044;-83
2022/12/18 09:49:21;;;;;;;32.28;14.10;;;;;;;;;;5000809;28;20033;-82
2022/12/18 09:51:52;;;;;;;36.65;15.40;;;;;;;;;;5017966;28;20029;-82
2022/12/18 09:54:39;;;;;;;29.35;13.07;;;;;;;;;;5034558;28;20048;-83
2022/12/18 09:57:13;;;;;;;25.77;12.05;;;;;;;;;;5000799;28;20520;-82
2022/12/18 09:59:41;;;;;;;30.15;12.95;;;;;;;;;;5016745;28;20025;-84
2022/12/18 10:02:20;;;;;;;28.80;11.43;;;;;;;;;;5000753;28;20026;-83
2022/12/18 10:05:10;;;;;;;46.17;16.92;;;;;;;;;;5034669;28;20496;-81
2022/12/18 10:08:10;;;;;;;37.00;14.70;;;;;;;;;;5034858;28;20102;-83
2022/12/18 10:10:53;;;;;;;42.80;19.98;;;;;;;;;;4984653;28;20037;-82
2022/12/18 10:13:33;;;;;;;28.48;12.00;;;;;;;;;;5038259;28;20498;-83
2022/12/18 10:16:17;;;;;;;24.25;10.50;;;;;;;;;;5020552;28;20096;-83
2022/12/18 10:19:06;;;;;;;22.05;10.13;;;;;;;;;;5039127;28;20038;-83
2022/12/18 10:21:37;;;;;;;51.47;25.85;;;;;;;;;;5021387;28;20482;-82
2022/12/18 10:24:12;;;;;;;30.15;12.63;;;;;;;;;;5020364;28;20030;-82
2022/12/18 10:26:39;;;;;;;35.88;14.52;;;;;;;;;;5038312;28;20083;-83
2022/12/18 10:29:13;;;;;;;26.60;11.10;;;;;;;;;;5037543;28;20096;-82
2022/12/18 10:31:39;;;;;;;24.65;10.20;;;;;;;;;;5038163;28;20060;-82
2022/12/18 10:34:10;;;;;;;27.95;11.45;;;;;;;;;;5037755;28;20049;-82
2022/12/18 10:36:35;;;;;;;27.60;12.45;;;;;;;;;;5020460;28;20535;-82
2022/12/18 10:39:22;;;;;;;28.80;11.90;;;;;;;;;;5038413;28;20021;-83
2022/12/18 10:41:48;;;;;;;25.85;11.05;;;;;;;;;;5020657;28;20025;-82
2022/12/18 10:44:22;;;;;;;23.50;10.25;;;;;;;;;;5038453;28;20040;-83
2022/12/18 10:46:55;;;;;;;25.30;10.23;;;;;;;;;;5024785;28;20033;-82
2022/12/18 10:49:25;;;;;;;20.63;8.77;;;;;;;;;;5039200;28;20493;-82
2022/12/18 10:51:51;;;;;;;16.20;7.53;;;;;;;;;;5021203;28;20375;-82
2022/12/18 10:54:27;;;;;;;23.90;11.35;;;;;;;;;;5038711;28;20055;-84
2022/12/18 10:57:31;;;;;;;18.02;8.68;;;;;;;;;;5039031;28;20728;-82
2022/12/18 10:59:59;;;;;;;28.00;12.38;;;;;;;;;;5038612;28;20029;-82
2022/12/18 11:02:35;;;;;;;24.20;11.15;;;;;;;;;;5020613;28;20029;-82
2022/12/18 11:05:02;;;;;;;20.80;9.65;;;;;;;;;;5037370;28;20029;-82
2022/12/18 11:07:48;;;;;;;23.10;8.63;;;;;;;;;;5038833;28;20053;-83
2022/12/18 11:10:19;;;;;;;17.25;7.70;;;;;;;;;;5020354;28;20052;-84
2022/12/18 11:12:44;;;;;;;20.70;8.90;;;;;;;;;;5037438;28;20033;-82
2022/12/18 11:15:35;;;;;;;16.17;6.88;;;;;;;;;;5019633;28;20051;-81
2022/12/18 11:18:01;;;;;;;19.58;8.75;;;;;;;;;;5020085;28;20055;-81
2022/12/18 11:20:29;;;;;;;22.35;9.60;;;;;;;;;;5038024;28;20038;-83
2022/12/18 11:22:58;;;;;;;19.30;8.57;;;;;;;;;;5037619;28;20037;-83
2022/12/18 11:25:24;;;;;;;23.00;9.50;;;;;;;;;;5036821;28;20029;-83
2022/12/18 11:27:56;;;;;;;23.88;11.07;;;;;;;;;;5037953;28;20044;-83
2022/12/18 11:30:24;;;;;;;21.73;10.07;;;;;;;;;;5019705;28;20076;-84
2022/12/18 11:33:14;;;;;;;23.48;9.85;;;;;;;;;;5019686;28;20112;-83
2022/12/18 11:35:53;;;;;;;23.08;10.80;;;;;;;;;;5002853;28;20063;-82
2022/12/18 11:38:25;;;;;;;31.58;13.43;;;;;;;;;;5037747;28;20067;-83
2022/12/18 11:41:14;;;;;;;31.13;13.40;;;;;;;;;;5037070;28;20099;-83
2022/12/18 11:43:53;;;;;;;24.17;11.00;;;;;;;;;;5019303;28;20035;-81
2022/12/18 11:46:46;;;;;;;22.92;10.77;;;;;;;;;;5036399;28;20043;-83
2022/12/18 11:49:25;;;;;;;27.77;11.45;;;;;;;;;;5036928;28;20055;-83
2022/12/18 11:52:09;;;;;;;23.60;10.63;;;;;;;;;;5036734;28;20040;-82
2022/12/18 11:54:34;;;;;;;28.85;12.40;;;;;;;;;;5018506;28;20029;-84
2022/12/18 11:57:15;;;;;;;66.18;21.58;;;;;;;;;;5024559;28;20031;-83
2022/12/18 12:00:00;;;;;;;27.58;12.20;;;;;;;;;;5028366;28;20109;-80
2022/12/18 12:02:29;;;;;;;32.97;12.68;;;;;;;;;;5036770;28;20048;-83
2022/12/18 12:05:17;;;;;;;27.58;11.95;;;;;;;;;;5018446;28;20034;-82
2022/12/18 12:08:14;;;;;;;24.98;11.43;;;;;;;;;;5036822;28;20109;-82
2022/12/18 12:11:28;;;;;;;24.70;10.95;;;;;;;;;;5036684;28;20036;-82
2022/12/18 12:14:13;;;;;;;26.00;11.95;;;;;;;;;;4995243;28;20068;-83
2022/12/18 12:16:48;;;;;;;26.67;10.68;;;;;;;;;;5002661;28;20042;-82
2022/12/18 12:19:32;;;;;;;23.10;10.60;;;;;;;;;;5002896;28;20056;-83
2022/12/18 12:22:12;;;;;;;22.77;10.55;;;;;;;;;;5036499;28;20034;-83
2022/12/18 12:24:43;;;;;;;26.85;11.57;;;;;;;;;;5001261;28;20042;-82
2022/12/18 12:27:23;;;;;;;24.42;10.55;;;;;;;;;;5036303;28;20037;-82
2022/12/18 12:29:48;;;;;;;32.97;13.35;;;;;;;;;;5001825;28;20041;-83
2022/12/18 12:32:35;;;;;;;29.15;12.85;;;;;;;;;;5001466;28;20041;-84
2022/12/18 12:35:44;;;;;;;23.67;11.52;;;;;;;;;;5017383;28;20045;-82
2022/12/18 12:38:26;;;;;;;26.10;11.57;;;;;;;;;;5017788;28;20041;-83
2022/12/18 12:41:00;;;;;;;28.75;11.30;;;;;;;;;;5017864;28;20037;-81
2022/12/18 12:43:43;;;;;;;26.30;11.95;;;;;;;;;;5001774;28;20037;-82
2022/12/18 12:46:11;;;;;;;30.65;12.27;;;;;;;;;;5034998;28;20118;-82
2022/12/18 12:48:45;;;;;;;27.80;12.50;;;;;;;;;;5018226;28;20045;-83
2022/12/18 12:51:18;;;;;;;32.05;15.57;;;;;;;;;;5035706;28;20040;-82
2022/12/18 12:53:45;;;;;;;27.77;12.70;;;;;;;;;;5017876;28;20029;-82
2022/12/18 12:56:13;;;;;;;30.05;14.00;;;;;;;;;;5016849;28;20025;-83
2022/12/18 12:58:52;;;;;;;24.70;11.23;;;;;;;;;;5017728;28;20045;-81
2022/12/18 13:01:39;;;;;;;27.23;11.90;;;;;;;;;;5001312;28;20045;-83
2022/12/18 13:04:23;;;;;;;26.10;11.27;;;;;;;;;;5016872;28;20379;-83
2022/12/18 13:06:57;;;;;;;28.52;13.77;;;;;;;;;;5001545;28;20493;-84
2022/12/18 13:09:23;;;;;;;33.33;14.35;;;;;;;;;;5017895;28;20047;-83
2022/12/18 13:14:34;;;;;;;33.13;12.65;;;;;;;;;;5034747;28;20033;-83
2022/12/18 13:17:35;;;;;;;26.88;12.38;;;;;;;;;;5017717;28;20036;-82
2022/12/18 13:20:04;;;;;;;32.67;13.73;;;;;;;;;;4939304;29;20058;-82
2022/12/18 13:22:38;;;;;;;36.35;14.38;;;;;;;;;;5021008;28;20521;-84
2022/12/18 13:25:29;;;;;;;28.75;12.55;;;;;;;;;;5017964;28;20032;-84
2022/12/18 13:28:10;;;;;;;26.63;11.55;;;;;;;;;;5018360;28;20437;-84
2022/12/18 13:30:35;;;;;;;25.80;11.55;;;;;;;;;;5018237;28;20200;-83
2022/12/18 13:33:30;;;;;;;25.80;12.23;;;;;;;;;;5017862;28;20052;-82
2022/12/18 13:36:08;;;;;;;25.90;12.05;;;;;;;;;;5027824;28;20041;-82
2022/12/18 13:38:36;;;;;;;32.08;13.18;;;;;;;;;;5017862;28;20037;-82
2022/12/18 13:41:25;;;;;;;35.45;15.88;;;;;;;;;;5017956;28;20037;-82
2022/12/18 13:43:53;;;;;;;28.83;12.77;;;;;;;;;;5022591;28;20039;-81
2022/12/18 13:46:45;;;;;;;27.65;12.45;;;;;;;;;;5042111;28;20501;-83
2022/12/18 13:49:13;;;;;;;26.00;11.95;;;;;;;;;;5023907;28;20017;-83
2022/12/18 13:51:51;;;;;;;29.88;11.82;;;;;;;;;;5021426;28;20025;-82
2022/12/18 13:54:40;;;;;;;32.95;15.13;;;;;;;;;;5041277;28;20599;-83
2022/12/18 13:57:24;;;;;;;29.52;13.45;;;;;;;;;;5045535;28;20036;-83
2022/12/18 13:59:50;;;;;;;27.90;14.00;;;;;;;;;;5024482;28;20035;-82
2022/12/18 14:02:20;;;;;;;27.92;13.10;;;;;;;;;;5007719;28;20119;-82
2022/12/18 14:04:47;;;;;;;30.13;13.18;;;;;;;;;;5043015;28;20022;-84
2022/12/18 14:07:15;;;;;;;29.60;14.20;;;;;;;;;;5025598;28;20037;-84
2022/12/18 14:09:45;;;;;;;39.47;17.55;;;;;;;;;;5025545;28;20032;-84
2022/12/18 14:15:25;;;;;;;26.60;12.32;;;;;;;;;;5025004;28;20056;-84
2022/12/18 14:18:02;;;;;;;31.45;14.38;;;;;;;;;;5008543;28;20048;-83
2022/12/18 14:20:30;;;;;;;27.60;12.60;;;;;;;;;;5008329;28;20103;-83
2022/12/18 14:22:57;;;;;;;24.85;12.25;;;;;;;;;;5008234;28;20077;-82
2022/12/18 14:25:27;;;;;;;25.70;12.20;;;;;;;;;;5042304;28;20482;-83
2022/12/18 14:28:13;;;;;;;23.15;11.38;;;;;;;;;;5043030;28;20040;-83
2022/12/18 14:30:43;;;;;;;23.80;11.55;;;;;;;;;;5024643;28;20094;-83
2022/12/18 14:33:10;;;;;;;27.02;12.63;;;;;;;;;;5025315;28;20055;-84
2022/12/18 14:35:40;;;;;;;30.40;13.15;;;;;;;;;;5042405;28;20528;-83
2022/12/18 14:38:24;;;;;;;34.85;14.40;;;;;;;;;;5024466;28;20044;-82
2022/12/18 14:41:14;;;;;;;33.22;13.70;;;;;;;;;;5026189;28;20101;-85
2022/12/18 14:43:42;;;;;;;24.33;10.30;;;;;;;;;;5017124;28;20045;-84
2022/12/18 14:46:38;;;;;;;22.23;9.73;;;;;;;;;;5008016;28;20033;-83
2022/12/18 14:49:34;;;;;;;24.70;9.85;;;;;;;;;;5008207;28;20029;-83
2022/12/18 14:52:02;;;;;;;22.15;10.07;;;;;;;;;;5042173;28;20049;-83
2022/12/18 14:54:29;;;;;;;23.65;10.10;;;;;;;;;;5021508;28;20453;-84
2022/12/18 14:57:00;;;;;;;22.27;10.23;;;;;;;;;;5021346;28;20033;-83